sensor_id;sensor_type;location;lat;lon;timestamp;P1;durP1;ratioP1;P2;durP2;ratioP2
12591;SDS011;6361;52.120;5.108;2023-02-01T00:01:12;17.17;;;3.33;;
12591;SDS011;6361;52.120;5.108;2023-02-01T00:03:37;19.40;;;3.13;;
12591;SDS011;6361;52.120;5.108;2023-02-01T00:06:02;23.85;;;3.30;;
12591;SDS011;6361;52.120;5.108;2023-02-01T00:08:28;17.45;;;3.03;;
12591;SDS011;6361;52.120;5.108;2023-02-01T00:11:03;19.35;;;3.70;;
12591;SDS011;6361;52.120;5.108;2023-02-01T00:13:29;28.00;;;3.42;;
12591;SDS011;6361;52.120;5.108;2023-02-01T00:15:55;22.33;;;3.63;;
12591;SDS011;6361;52.120;5.108;2023-02-01T00:18:26;21.45;;;3.38;;
12591;SDS011;6361;52.120;5.108;2023-02-01T00:20:52;18.60;;;3.22;;
12591;SDS011;6361;52.120;5.108;2023-02-01T00:23:17;24.47;;;3.43;;
12591;SDS011;6361;52.120;5.108;2023-02-01T00:25:43;23.27;;;4.03;;
12591;SDS011;6361;52.120;5.108;2023-02-01T00:28:09;22.23;;;3.53;;
12591;SDS011;6361;52.120;5.108;2023-02-01T00:30:34;25.40;;;4.10;;
12591;SDS011;6361;52.120;5.108;2023-02-01T00:32:59;23.35;;;3.40;;
12591;SDS011;6361;52.120;5.108;2023-02-01T00:35:25;26.07;;;3.83;;
12591;SDS011;6361;52.120;5.108;2023-02-01T00:37:50;25.03;;;3.80;;
12591;SDS011;6361;52.120;5.108;2023-02-01T00:40:15;25.03;;;3.57;;
12591;SDS011;6361;52.120;5.108;2023-02-01T00:42:40;28.02;;;3.53;;
12591;SDS011;6361;52.120;5.108;2023-02-01T00:45:06;24.67;;;3.77;;
12591;SDS011;6361;52.120;5.108;2023-02-01T00:47:31;25.88;;;3.17;;
12591;SDS011;6361;52.120;5.108;2023-02-01T00:49:56;24.40;;;3.58;;
12591;SDS011;6361;52.120;5.108;2023-02-01T00:52:22;23.80;;;3.33;;
12591;SDS011;6361;52.120;5.108;2023-02-01T00:54:47;27.30;;;3.70;;
12591;SDS011;6361;52.120;5.108;2023-02-01T00:57:12;16.83;;;3.13;;
12591;SDS011;6361;52.120;5.108;2023-02-01T00:59:37;21.63;;;3.30;;
12591;SDS011;6361;52.120;5.108;2023-02-01T01:02:02;23.00;;;3.67;;
12591;SDS011;6361;52.120;5.108;2023-02-01T01:04:28;19.08;;;3.35;;
12591;SDS011;6361;52.120;5.108;2023-02-01T01:06:53;19.10;;;3.37;;
12591;SDS011;6361;52.120;5.108;2023-02-01T01:09:18;24.58;;;3.65;;
12591;SDS011;6361;52.120;5.108;2023-02-01T01:11:43;24.13;;;3.70;;
12591;SDS011;6361;52.120;5.108;2023-02-01T01:14:09;18.73;;;2.85;;
12591;SDS011;6361;52.120;5.108;2023-02-01T01:16:35;20.85;;;3.45;;
12591;SDS011;6361;52.120;5.108;2023-02-01T01:19:00;24.37;;;3.70;;
12591;SDS011;6361;52.120;5.108;2023-02-01T01:21:26;26.95;;;3.63;;
12591;SDS011;6361;52.120;5.108;2023-02-01T01:23:51;27.92;;;3.67;;
12591;SDS011;6361;52.120;5.108;2023-02-01T01:26:21;26.42;;;3.67;;
12591;SDS011;6361;52.120;5.108;2023-02-01T01:28:47;19.58;;;3.22;;
12591;SDS011;6361;52.120;5.108;2023-02-01T01:31:13;17.60;;;3.47;;
12591;SDS011;6361;52.120;5.108;2023-02-01T01:33:40;21.83;;;3.53;;
12591;SDS011;6361;52.120;5.108;2023-02-01T01:36:08;22.50;;;3.40;;
12591;SDS011;6361;52.120;5.108;2023-02-01T01:38:40;22.83;;;3.72;;
12591;SDS011;6361;52.120;5.108;2023-02-01T01:41:06;22.52;;;2.88;;
12591;SDS011;6361;52.120;5.108;2023-02-01T01:46:15;28.50;;;3.60;;
12591;SDS011;6361;52.120;5.108;2023-02-01T01:48:40;27.10;;;4.18;;
12591;SDS011;6361;52.120;5.108;2023-02-01T01:51:07;23.10;;;3.63;;
12591;SDS011;6361;52.120;5.108;2023-02-01T01:53:33;22.20;;;3.08;;
12591;SDS011;6361;52.120;5.108;2023-02-01T01:56:00;23.15;;;3.58;;
12591;SDS011;6361;52.120;5.108;2023-02-01T01:58:26;23.75;;;3.40;;
12591;SDS011;6361;52.120;5.108;2023-02-01T02:00:53;24.33;;;3.33;;
12591;SDS011;6361;52.120;5.108;2023-02-01T02:03:22;23.08;;;3.28;;
12591;SDS011;6361;52.120;5.108;2023-02-01T02:05:49;28.45;;;4.53;;
12591;SDS011;6361;52.120;5.108;2023-02-01T02:08:15;25.55;;;3.70;;
12591;SDS011;6361;52.120;5.108;2023-02-01T02:10:41;25.35;;;3.67;;
12591;SDS011;6361;52.120;5.108;2023-02-01T02:13:26;27.10;;;4.20;;
12591;SDS011;6361;52.120;5.108;2023-02-01T02:16:00;25.52;;;3.70;;
12591;SDS011;6361;52.120;5.108;2023-02-01T02:18:31;25.75;;;3.80;;
12591;SDS011;6361;52.120;5.108;2023-02-01T02:23:48;27.90;;;3.60;;
12591;SDS011;6361;52.120;5.108;2023-02-01T02:26:30;17.17;;;3.00;;
12591;SDS011;6361;52.120;5.108;2023-02-01T02:34:34;18.95;;;3.38;;
12591;SDS011;6361;52.120;5.108;2023-02-01T02:47:56;23.33;;;3.90;;
12591;SDS011;6361;52.120;5.108;2023-02-01T02:53:27;24.58;;;3.85;;
12591;SDS011;6361;52.120;5.108;2023-02-01T02:56:13;20.27;;;3.63;;
12591;SDS011;6361;52.120;5.108;2023-02-01T03:01:43;19.75;;;3.88;;
12591;SDS011;6361;52.120;5.108;2023-02-01T03:04:26;27.88;;;3.58;;
12591;SDS011;6361;52.120;5.108;2023-02-01T03:06:52;26.45;;;3.83;;
12591;SDS011;6361;52.120;5.108;2023-02-01T03:11:46;24.13;;;3.50;;
12591;SDS011;6361;52.120;5.108;2023-02-01T03:14:31;23.83;;;3.63;;
12591;SDS011;6361;52.120;5.108;2023-02-01T03:17:00;17.35;;;2.97;;
12591;SDS011;6361;52.120;5.108;2023-02-01T03:19:32;20.33;;;3.38;;
12591;SDS011;6361;52.120;5.108;2023-02-01T03:22:00;17.75;;;3.38;;
12591;SDS011;6361;52.120;5.108;2023-02-01T03:24:33;19.58;;;3.38;;
12591;SDS011;6361;52.120;5.108;2023-02-01T03:27:34;22.50;;;4.07;;
12591;SDS011;6361;52.120;5.108;2023-02-01T03:29:52;16.75;;;3.45;;
12591;SDS011;6361;52.120;5.108;2023-02-01T03:32:19;25.08;;;3.28;;
12591;SDS011;6361;52.120;5.108;2023-02-01T03:34:45;21.17;;;3.60;;
12591;SDS011;6361;52.120;5.108;2023-02-01T03:37:11;22.90;;;3.92;;
12591;SDS011;6361;52.120;5.108;2023-02-01T03:39:57;27.48;;;4.32;;
12591;SDS011;6361;52.120;5.108;2023-02-01T03:42:27;19.65;;;3.35;;
12591;SDS011;6361;52.120;5.108;2023-02-01T03:45:12;26.10;;;3.67;;
12591;SDS011;6361;52.120;5.108;2023-02-01T03:47:39;25.45;;;3.65;;
12591;SDS011;6361;52.120;5.108;2023-02-01T03:50:16;28.48;;;3.65;;
12591;SDS011;6361;52.120;5.108;2023-02-01T03:52:44;24.30;;;3.55;;
12591;SDS011;6361;52.120;5.108;2023-02-01T03:55:10;23.40;;;3.40;;
12591;SDS011;6361;52.120;5.108;2023-02-01T03:57:39;32.92;;;4.60;;
12591;SDS011;6361;52.120;5.108;2023-02-01T04:00:08;20.83;;;3.42;;
12591;SDS011;6361;52.120;5.108;2023-02-01T04:02:33;20.08;;;3.50;;
12591;SDS011;6361;52.120;5.108;2023-02-01T04:04:59;22.45;;;3.40;;
12591;SDS011;6361;52.120;5.108;2023-02-01T04:07:24;22.57;;;3.50;;
12591;SDS011;6361;52.120;5.108;2023-02-01T04:09:49;19.60;;;2.85;;
12591;SDS011;6361;52.120;5.108;2023-02-01T04:12:15;24.07;;;4.07;;
12591;SDS011;6361;52.120;5.108;2023-02-01T04:14:40;21.73;;;3.10;;
12591;SDS011;6361;52.120;5.108;2023-02-01T04:17:05;23.70;;;3.70;;
12591;SDS011;6361;52.120;5.108;2023-02-01T04:19:30;18.58;;;3.42;;
12591;SDS011;6361;52.120;5.108;2023-02-01T04:21:55;21.73;;;3.40;;
12591;SDS011;6361;52.120;5.108;2023-02-01T04:24:21;25.83;;;4.27;;
12591;SDS011;6361;52.120;5.108;2023-02-01T04:26:46;19.70;;;3.53;;
12591;SDS011;6361;52.120;5.108;2023-02-01T04:29:11;18.57;;;3.37;;
12591;SDS011;6361;52.120;5.108;2023-02-01T04:31:36;25.75;;;4.13;;
12591;SDS011;6361;52.120;5.108;2023-02-01T04:34:02;19.73;;;3.85;;
12591;SDS011;6361;52.120;5.108;2023-02-01T04:36:27;18.92;;;3.15;;
12591;SDS011;6361;52.120;5.108;2023-02-01T04:38:52;15.63;;;2.97;;
12591;SDS011;6361;52.120;5.108;2023-02-01T04:41:18;30.05;;;3.97;;
12591;SDS011;6361;52.120;5.108;2023-02-01T04:43:47;26.45;;;3.83;;
12591;SDS011;6361;52.120;5.108;2023-02-01T04:46:12;22.15;;;3.92;;
12591;SDS011;6361;52.120;5.108;2023-02-01T04:48:37;24.95;;;4.05;;
12591;SDS011;6361;52.120;5.108;2023-02-01T04:51:03;31.15;;;4.32;;
12591;SDS011;6361;52.120;5.108;2023-02-01T04:53:28;22.70;;;3.67;;
12591;SDS011;6361;52.120;5.108;2023-02-01T04:55:54;25.65;;;3.60;;
12591;SDS011;6361;52.120;5.108;2023-02-01T04:58:20;25.88;;;3.65;;
12591;SDS011;6361;52.120;5.108;2023-02-01T05:00:45;23.93;;;4.03;;
12591;SDS011;6361;52.120;5.108;2023-02-01T05:03:10;23.52;;;3.97;;
12591;SDS011;6361;52.120;5.108;2023-02-01T05:05:35;24.03;;;3.30;;
12591;SDS011;6361;52.120;5.108;2023-02-01T05:08:01;21.77;;;3.20;;
12591;SDS011;6361;52.120;5.108;2023-02-01T05:10:26;19.53;;;3.73;;
12591;SDS011;6361;52.120;5.108;2023-02-01T05:12:51;20.97;;;3.37;;
12591;SDS011;6361;52.120;5.108;2023-02-01T05:15:35;18.85;;;3.42;;
12591;SDS011;6361;52.120;5.108;2023-02-01T05:18:00;19.90;;;3.63;;
12591;SDS011;6361;52.120;5.108;2023-02-01T05:20:25;29.80;;;4.03;;
12591;SDS011;6361;52.120;5.108;2023-02-01T05:22:51;24.23;;;3.40;;
12591;SDS011;6361;52.120;5.108;2023-02-01T05:25:16;17.93;;;3.73;;
12591;SDS011;6361;52.120;5.108;2023-02-01T05:27:41;21.43;;;3.40;;
12591;SDS011;6361;52.120;5.108;2023-02-01T05:30:07;24.77;;;3.35;;
12591;SDS011;6361;52.120;5.108;2023-02-01T05:32:33;20.50;;;3.50;;
12591;SDS011;6361;52.120;5.108;2023-02-01T05:34:58;27.13;;;4.25;;
12591;SDS011;6361;52.120;5.108;2023-02-01T05:37:23;24.88;;;3.58;;
12591;SDS011;6361;52.120;5.108;2023-02-01T05:39:48;23.30;;;3.87;;
12591;SDS011;6361;52.120;5.108;2023-02-01T05:42:14;23.13;;;4.07;;
12591;SDS011;6361;52.120;5.108;2023-02-01T05:44:39;27.50;;;3.83;;
12591;SDS011;6361;52.120;5.108;2023-02-01T05:47:04;22.83;;;3.93;;
12591;SDS011;6361;52.120;5.108;2023-02-01T05:49:29;25.20;;;3.90;;
12591;SDS011;6361;52.120;5.108;2023-02-01T05:51:54;26.55;;;3.97;;
12591;SDS011;6361;52.120;5.108;2023-02-01T05:54:20;20.10;;;3.37;;
12591;SDS011;6361;52.120;5.108;2023-02-01T05:56:45;27.60;;;3.90;;
12591;SDS011;6361;52.120;5.108;2023-02-01T05:59:10;24.90;;;3.90;;
12591;SDS011;6361;52.120;5.108;2023-02-01T06:01:35;21.40;;;3.80;;
12591;SDS011;6361;52.120;5.108;2023-02-01T06:04:01;22.95;;;3.67;;
12591;SDS011;6361;52.120;5.108;2023-02-01T06:06:26;23.17;;;3.30;;
12591;SDS011;6361;52.120;5.108;2023-02-01T06:08:51;22.48;;;3.75;;
12591;SDS011;6361;52.120;5.108;2023-02-01T06:11:16;21.33;;;4.13;;
12591;SDS011;6361;52.120;5.108;2023-02-01T06:13:42;25.00;;;3.60;;
12591;SDS011;6361;52.120;5.108;2023-02-01T06:16:07;19.97;;;3.70;;
12591;SDS011;6361;52.120;5.108;2023-02-01T06:18:33;28.67;;;4.55;;
12591;SDS011;6361;52.120;5.108;2023-02-01T06:20:58;18.02;;;3.75;;
12591;SDS011;6361;52.120;5.108;2023-02-01T06:23:27;24.45;;;4.20;;
12591;SDS011;6361;52.120;5.108;2023-02-01T06:25:57;16.20;;;3.40;;
12591;SDS011;6361;52.120;5.108;2023-02-01T06:28:24;26.52;;;3.88;;
12591;SDS011;6361;52.120;5.108;2023-02-01T06:30:49;23.70;;;4.10;;
12591;SDS011;6361;52.120;5.108;2023-02-01T06:33:14;22.33;;;3.57;;
12591;SDS011;6361;52.120;5.108;2023-02-01T06:35:43;23.95;;;3.40;;
12591;SDS011;6361;52.120;5.108;2023-02-01T06:38:12;24.33;;;4.93;;
12591;SDS011;6361;52.120;5.108;2023-02-01T06:40:37;21.25;;;3.60;;
12591;SDS011;6361;52.120;5.108;2023-02-01T06:43:03;16.80;;;3.80;;
12591;SDS011;6361;52.120;5.108;2023-02-01T06:45:28;24.23;;;3.60;;
12591;SDS011;6361;52.120;5.108;2023-02-01T06:47:53;16.45;;;3.65;;
12591;SDS011;6361;52.120;5.108;2023-02-01T06:50:18;20.10;;;3.27;;
12591;SDS011;6361;52.120;5.108;2023-02-01T06:52:44;18.10;;;3.60;;
12591;SDS011;6361;52.120;5.108;2023-02-01T06:55:09;20.93;;;3.53;;
12591;SDS011;6361;52.120;5.108;2023-02-01T06:57:34;20.77;;;3.67;;
12591;SDS011;6361;52.120;5.108;2023-02-01T07:00:01;19.35;;;3.92;;
12591;SDS011;6361;52.120;5.108;2023-02-01T07:02:27;24.23;;;3.92;;
12591;SDS011;6361;52.120;5.108;2023-02-01T07:04:52;18.92;;;3.13;;
12591;SDS011;6361;52.120;5.108;2023-02-01T07:07:17;20.07;;;3.97;;
12591;SDS011;6361;52.120;5.108;2023-02-01T07:09:44;21.95;;;3.15;;
12591;SDS011;6361;52.120;5.108;2023-02-01T07:12:09;22.35;;;3.78;;
12591;SDS011;6361;52.120;5.108;2023-02-01T07:14:35;18.98;;;3.63;;
12591;SDS011;6361;52.120;5.108;2023-02-01T07:17:00;23.45;;;3.70;;
12591;SDS011;6361;52.120;5.108;2023-02-01T07:19:25;22.63;;;4.25;;
12591;SDS011;6361;52.120;5.108;2023-02-01T07:21:50;21.20;;;3.20;;
12591;SDS011;6361;52.120;5.108;2023-02-01T07:24:16;18.63;;;3.13;;
12591;SDS011;6361;52.120;5.108;2023-02-01T07:26:41;21.85;;;3.50;;
12591;SDS011;6361;52.120;5.108;2023-02-01T07:29:06;22.00;;;4.13;;
12591;SDS011;6361;52.120;5.108;2023-02-01T07:31:32;19.07;;;3.40;;
12591;SDS011;6361;52.120;5.108;2023-02-01T07:33:57;22.20;;;3.33;;
12591;SDS011;6361;52.120;5.108;2023-02-01T07:36:23;20.30;;;3.35;;
12591;SDS011;6361;52.120;5.108;2023-02-01T07:38:48;20.45;;;3.67;;
12591;SDS011;6361;52.120;5.108;2023-02-01T07:41:15;18.25;;;3.47;;
12591;SDS011;6361;52.120;5.108;2023-02-01T07:43:40;22.08;;;3.63;;
12591;SDS011;6361;52.120;5.108;2023-02-01T07:46:06;24.90;;;2.97;;
12591;SDS011;6361;52.120;5.108;2023-02-01T07:48:32;19.63;;;3.35;;
12591;SDS011;6361;52.120;5.108;2023-02-01T07:51:02;21.88;;;4.18;;
12591;SDS011;6361;52.120;5.108;2023-02-01T07:53:28;21.33;;;3.05;;
12591;SDS011;6361;52.120;5.108;2023-02-01T07:55:54;26.88;;;3.50;;
12591;SDS011;6361;52.120;5.108;2023-02-01T07:58:21;19.52;;;3.58;;
12591;SDS011;6361;52.120;5.108;2023-02-01T08:00:46;21.95;;;3.28;;
12591;SDS011;6361;52.120;5.108;2023-02-01T08:03:30;26.50;;;3.50;;
12591;SDS011;6361;52.120;5.108;2023-02-01T08:05:55;13.13;;;2.57;;
12591;SDS011;6361;52.120;5.108;2023-02-01T08:08:21;30.58;;;4.00;;
12591;SDS011;6361;52.120;5.108;2023-02-01T08:10:46;20.42;;;3.53;;
12591;SDS011;6361;52.120;5.108;2023-02-01T08:13:11;23.25;;;3.28;;
12591;SDS011;6361;52.120;5.108;2023-02-01T08:15:36;25.95;;;3.80;;
12591;SDS011;6361;52.120;5.108;2023-02-01T08:18:02;24.48;;;3.70;;
12591;SDS011;6361;52.120;5.108;2023-02-01T08:20:27;19.33;;;3.20;;
12591;SDS011;6361;52.120;5.108;2023-02-01T08:22:53;18.10;;;3.67;;
12591;SDS011;6361;52.120;5.108;2023-02-01T08:25:19;16.48;;;2.95;;
12591;SDS011;6361;52.120;5.108;2023-02-01T08:27:44;13.77;;;2.08;;
12591;SDS011;6361;52.120;5.108;2023-02-01T08:30:10;20.00;;;3.50;;
12591;SDS011;6361;52.120;5.108;2023-02-01T08:36:49;13.23;;;3.65;;
12591;SDS011;6361;52.120;5.108;2023-02-01T08:39:16;13.10;;;3.72;;
12591;SDS011;6361;52.120;5.108;2023-02-01T08:41:42;11.77;;;3.45;;
12591;SDS011;6361;52.120;5.108;2023-02-01T08:44:27;16.80;;;3.65;;
12591;SDS011;6361;52.120;5.108;2023-02-01T08:46:52;13.27;;;3.67;;
12591;SDS011;6361;52.120;5.108;2023-02-01T08:49:18;14.48;;;3.92;;
12591;SDS011;6361;52.120;5.108;2023-02-01T08:51:43;15.45;;;3.53;;
12591;SDS011;6361;52.120;5.108;2023-02-01T08:54:08;10.63;;;3.08;;
12591;SDS011;6361;52.120;5.108;2023-02-01T08:56:34;14.40;;;3.47;;
12591;SDS011;6361;52.120;5.108;2023-02-01T08:58:59;16.45;;;3.30;;
12591;SDS011;6361;52.120;5.108;2023-02-01T09:01:24;9.85;;;3.15;;
12591;SDS011;6361;52.120;5.108;2023-02-01T09:03:50;13.07;;;3.35;;
12591;SDS011;6361;52.120;5.108;2023-02-01T09:06:15;12.80;;;3.17;;
12591;SDS011;6361;52.120;5.108;2023-02-01T09:08:41;10.95;;;3.17;;
12591;SDS011;6361;52.120;5.108;2023-02-01T09:11:08;14.75;;;3.67;;
12591;SDS011;6361;52.120;5.108;2023-02-01T09:13:37;16.38;;;3.50;;
12591;SDS011;6361;52.120;5.108;2023-02-01T09:16:02;11.35;;;3.08;;
12591;SDS011;6361;52.120;5.108;2023-02-01T09:18:29;11.13;;;3.15;;
12591;SDS011;6361;52.120;5.108;2023-02-01T09:20:54;13.60;;;3.42;;
12591;SDS011;6361;52.120;5.108;2023-02-01T09:23:19;10.10;;;3.10;;
12591;SDS011;6361;52.120;5.108;2023-02-01T09:25:48;12.30;;;3.17;;
12591;SDS011;6361;52.120;5.108;2023-02-01T09:28:16;10.95;;;3.33;;
12591;SDS011;6361;52.120;5.108;2023-02-01T09:30:42;11.55;;;3.50;;
12591;SDS011;6361;52.120;5.108;2023-02-01T09:33:07;11.88;;;3.30;;
12591;SDS011;6361;52.120;5.108;2023-02-01T09:35:33;8.80;;;2.80;;
12591;SDS011;6361;52.120;5.108;2023-02-01T09:37:58;11.48;;;3.28;;
12591;SDS011;6361;52.120;5.108;2023-02-01T09:40:24;12.27;;;3.00;;
12591;SDS011;6361;52.120;5.108;2023-02-01T09:47:59;11.23;;;2.75;;
12591;SDS011;6361;52.120;5.108;2023-02-01T09:50:31;12.98;;;3.08;;
12591;SDS011;6361;52.120;5.108;2023-02-01T09:53:06;9.93;;;2.80;;
12591;SDS011;6361;52.120;5.108;2023-02-01T09:55:39;12.85;;;3.50;;
12591;SDS011;6361;52.120;5.108;2023-02-01T10:00:43;12.15;;;3.28;;
12591;SDS011;6361;52.120;5.108;2023-02-01T10:03:20;10.93;;;3.00;;
12591;SDS011;6361;52.120;5.108;2023-02-01T10:11:18;10.77;;;3.08;;
12591;SDS011;6361;52.120;5.108;2023-02-01T10:14:00;12.23;;;2.97;;
12591;SDS011;6361;52.120;5.108;2023-02-01T10:16:44;11.05;;;3.05;;
12591;SDS011;6361;52.120;5.108;2023-02-01T10:22:11;11.38;;;2.88;;
12591;SDS011;6361;52.120;5.108;2023-02-01T10:27:22;10.73;;;3.10;;
12591;SDS011;6361;52.120;5.108;2023-02-01T10:29:52;13.93;;;3.53;;
12591;SDS011;6361;52.120;5.108;2023-02-01T10:32:24;12.77;;;2.97;;
12591;SDS011;6361;52.120;5.108;2023-02-01T10:35:00;10.10;;;2.88;;
12591;SDS011;6361;52.120;5.108;2023-02-01T10:37:32;9.50;;;2.80;;
12591;SDS011;6361;52.120;5.108;2023-02-01T10:39:59;9.40;;;2.80;;
12591;SDS011;6361;52.120;5.108;2023-02-01T10:42:43;8.57;;;2.92;;
12591;SDS011;6361;52.120;5.108;2023-02-01T10:45:11;10.05;;;2.95;;
12591;SDS011;6361;52.120;5.108;2023-02-01T10:47:38;10.18;;;3.08;;
12591;SDS011;6361;52.120;5.108;2023-02-01T10:52:38;10.23;;;2.88;;
12591;SDS011;6361;52.120;5.108;2023-02-01T10:57:58;10.90;;;2.92;;
12591;SDS011;6361;52.120;5.108;2023-02-01T11:00:25;11.75;;;3.03;;
12591;SDS011;6361;52.120;5.108;2023-02-01T11:02:51;10.85;;;3.00;;
12591;SDS011;6361;52.120;5.108;2023-02-01T11:05:17;11.40;;;2.65;;
12591;SDS011;6361;52.120;5.108;2023-02-01T11:07:50;10.05;;;2.90;;
12591;SDS011;6361;52.120;5.108;2023-02-01T11:13:04;10.43;;;2.83;;
12591;SDS011;6361;52.120;5.108;2023-02-01T11:15:30;8.95;;;2.90;;
12591;SDS011;6361;52.120;5.108;2023-02-01T11:17:55;13.00;;;2.90;;
12591;SDS011;6361;52.120;5.108;2023-02-01T11:23:17;10.52;;;3.20;;
12591;SDS011;6361;52.120;5.108;2023-02-01T11:25:48;9.65;;;2.80;;
12591;SDS011;6361;52.120;5.108;2023-02-01T11:28:21;11.45;;;2.63;;
12591;SDS011;6361;52.120;5.108;2023-02-01T11:30:49;9.00;;;2.67;;
12591;SDS011;6361;52.120;5.108;2023-02-01T11:33:18;11.10;;;2.90;;
12591;SDS011;6361;52.120;5.108;2023-02-01T11:35:45;10.32;;;3.08;;
12591;SDS011;6361;52.120;5.108;2023-02-01T11:38:26;12.68;;;3.15;;
12591;SDS011;6361;52.120;5.108;2023-02-01T11:40:55;9.57;;;2.80;;
12591;SDS011;6361;52.120;5.108;2023-02-01T11:43:37;12.88;;;2.90;;
12591;SDS011;6361;52.120;5.108;2023-02-01T11:46:03;14.35;;;2.92;;
12591;SDS011;6361;52.120;5.108;2023-02-01T11:48:31;12.98;;;3.17;;
12591;SDS011;6361;52.120;5.108;2023-02-01T11:53:41;9.90;;;2.92;;
12591;SDS011;6361;52.120;5.108;2023-02-01T11:56:23;11.07;;;3.25;;
12591;SDS011;6361;52.120;5.108;2023-02-01T12:01:38;8.00;;;2.60;;
12591;SDS011;6361;52.120;5.108;2023-02-01T12:07:19;12.88;;;3.58;;
12591;SDS011;6361;52.120;5.108;2023-02-01T12:15:20;11.88;;;3.08;;
12591;SDS011;6361;52.120;5.108;2023-02-01T12:23:37;10.07;;;2.78;;
12591;SDS011;6361;52.120;5.108;2023-02-01T12:29:11;8.25;;;2.75;;
12591;SDS011;6361;52.120;5.108;2023-02-01T12:31:52;9.95;;;2.65;;
12591;SDS011;6361;52.120;5.108;2023-02-01T12:34:26;14.95;;;3.20;;
12591;SDS011;6361;52.120;5.108;2023-02-01T12:37:06;9.98;;;2.97;;
12591;SDS011;6361;52.120;5.108;2023-02-01T12:39:40;16.55;;;2.95;;
12591;SDS011;6361;52.120;5.108;2023-02-01T12:50:41;9.55;;;2.55;;
12591;SDS011;6361;52.120;5.108;2023-02-01T12:53:23;10.50;;;3.00;;
12591;SDS011;6361;52.120;5.108;2023-02-01T12:55:54;13.38;;;2.97;;
12591;SDS011;6361;52.120;5.108;2023-02-01T12:58:42;11.48;;;2.97;;
12591;SDS011;6361;52.120;5.108;2023-02-01T13:01:25;11.77;;;2.75;;
12591;SDS011;6361;52.120;5.108;2023-02-01T13:11:31;15.10;;;2.88;;
12591;SDS011;6361;52.120;5.108;2023-02-01T13:14:10;11.70;;;3.03;;
12591;SDS011;6361;52.120;5.108;2023-02-01T13:16:43;12.05;;;2.75;;
12591;SDS011;6361;52.120;5.108;2023-02-01T13:21:46;12.68;;;3.03;;
12591;SDS011;6361;52.120;5.108;2023-02-01T13:24:59;11.48;;;2.95;;
12591;SDS011;6361;52.120;5.108;2023-02-01T13:27:08;11.35;;;3.10;;
12591;SDS011;6361;52.120;5.108;2023-02-01T13:29:36;12.55;;;2.50;;
12591;SDS011;6361;52.120;5.108;2023-02-01T13:40:36;10.80;;;2.97;;
12591;SDS011;6361;52.120;5.108;2023-02-01T13:45:47;9.65;;;2.72;;
12591;SDS011;6361;52.120;5.108;2023-02-01T13:48:18;13.10;;;2.65;;
12591;SDS011;6361;52.120;5.108;2023-02-01T13:50:49;10.20;;;2.80;;
12591;SDS011;6361;52.120;5.108;2023-02-01T13:53:17;10.93;;;2.72;;
12591;SDS011;6361;52.120;5.108;2023-02-01T13:55:46;10.52;;;2.85;;
12591;SDS011;6361;52.120;5.108;2023-02-01T13:58:18;9.10;;;2.72;;
12591;SDS011;6361;52.120;5.108;2023-02-01T14:00:45;11.20;;;3.00;;
12591;SDS011;6361;52.120;5.108;2023-02-01T14:03:12;10.18;;;2.40;;
12591;SDS011;6361;52.120;5.108;2023-02-01T14:08:13;13.35;;;2.58;;
12591;SDS011;6361;52.120;5.108;2023-02-01T14:10:49;10.05;;;2.55;;
12591;SDS011;6361;52.120;5.108;2023-02-01T14:13:28;15.30;;;3.17;;
12591;SDS011;6361;52.120;5.108;2023-02-01T14:21:18;10.27;;;2.72;;
12591;SDS011;6361;52.120;5.108;2023-02-01T14:26:18;13.32;;;3.15;;
12591;SDS011;6361;52.120;5.108;2023-02-01T14:28:52;9.35;;;2.80;;
12591;SDS011;6361;52.120;5.108;2023-02-01T14:34:11;14.35;;;3.08;;
12591;SDS011;6361;52.120;5.108;2023-02-01T14:36:46;12.80;;;2.90;;
12591;SDS011;6361;52.120;5.108;2023-02-01T14:39:31;9.88;;;2.80;;
12591;SDS011;6361;52.120;5.108;2023-02-01T14:42:01;9.15;;;2.55;;
12591;SDS011;6361;52.120;5.108;2023-02-01T14:44:35;13.55;;;3.38;;
12591;SDS011;6361;52.120;5.108;2023-02-01T14:49:58;11.73;;;2.92;;
12591;SDS011;6361;52.120;5.108;2023-02-01T14:52:33;12.67;;;3.13;;
12591;SDS011;6361;52.120;5.108;2023-02-01T14:55:03;12.25;;;2.97;;
12591;SDS011;6361;52.120;5.108;2023-02-01T14:57:31;13.18;;;2.95;;
12591;SDS011;6361;52.120;5.108;2023-02-01T15:00:01;10.38;;;2.65;;
12591;SDS011;6361;52.120;5.108;2023-02-01T15:02:41;7.63;;;2.53;;
12591;SDS011;6361;52.120;5.108;2023-02-01T15:05:23;9.38;;;2.83;;
12591;SDS011;6361;52.120;5.108;2023-02-01T15:07:51;11.45;;;3.00;;
12591;SDS011;6361;52.120;5.108;2023-02-01T15:10:17;10.40;;;2.75;;
12591;SDS011;6361;52.120;5.108;2023-02-01T15:12:44;8.90;;;2.85;;
12591;SDS011;6361;52.120;5.108;2023-02-01T15:15:15;11.30;;;2.95;;
12591;SDS011;6361;52.120;5.108;2023-02-01T15:17:52;12.07;;;3.10;;
12591;SDS011;6361;52.120;5.108;2023-02-01T15:20:27;11.23;;;2.88;;
12591;SDS011;6361;52.120;5.108;2023-02-01T15:22:56;11.07;;;2.88;;
12591;SDS011;6361;52.120;5.108;2023-02-01T15:25:29;12.32;;;3.25;;
12591;SDS011;6361;52.120;5.108;2023-02-01T15:27:56;13.32;;;3.15;;
12591;SDS011;6361;52.120;5.108;2023-02-01T15:30:26;8.50;;;2.88;;
12591;SDS011;6361;52.120;5.108;2023-02-01T15:33:03;12.30;;;2.80;;
12591;SDS011;6361;52.120;5.108;2023-02-01T15:35:36;11.20;;;2.70;;
12591;SDS011;6361;52.120;5.108;2023-02-01T15:41:13;11.27;;;2.80;;
12591;SDS011;6361;52.120;5.108;2023-02-01T15:46:41;13.13;;;3.17;;
12591;SDS011;6361;52.120;5.108;2023-02-01T15:52:02;9.20;;;3.00;;
12591;SDS011;6361;52.120;5.108;2023-02-01T15:54:31;9.57;;;2.58;;
12591;SDS011;6361;52.120;5.108;2023-02-01T15:59:44;9.23;;;2.75;;
12591;SDS011;6361;52.120;5.108;2023-02-01T16:04:57;9.93;;;2.58;;
12591;SDS011;6361;52.120;5.108;2023-02-01T16:07:25;12.05;;;2.78;;
12591;SDS011;6361;52.120;5.108;2023-02-01T16:09:56;10.32;;;2.78;;
12591;SDS011;6361;52.120;5.108;2023-02-01T16:12:27;11.85;;;2.75;;
12591;SDS011;6361;52.120;5.108;2023-02-01T16:14:56;9.63;;;2.83;;
12591;SDS011;6361;52.120;5.108;2023-02-01T16:17:22;8.57;;;3.10;;
12591;SDS011;6361;52.120;5.108;2023-02-01T16:19:47;8.90;;;2.85;;
12591;SDS011;6361;52.120;5.108;2023-02-01T16:22:12;10.98;;;2.60;;
12591;SDS011;6361;52.120;5.108;2023-02-01T16:24:38;11.00;;;2.97;;
12591;SDS011;6361;52.120;5.108;2023-02-01T16:27:03;12.57;;;3.05;;
12591;SDS011;6361;52.120;5.108;2023-02-01T16:29:31;13.00;;;2.78;;
12591;SDS011;6361;52.120;5.108;2023-02-01T16:37:59;19.23;;;3.22;;
12591;SDS011;6361;52.120;5.108;2023-02-01T16:40:25;18.05;;;3.47;;
12591;SDS011;6361;52.120;5.108;2023-02-01T16:42:51;21.70;;;3.53;;
12591;SDS011;6361;52.120;5.108;2023-02-01T16:45:18;16.48;;;3.40;;
12591;SDS011;6361;52.120;5.108;2023-02-01T16:47:47;20.83;;;3.47;;
12591;SDS011;6361;52.120;5.108;2023-02-01T16:50:20;21.50;;;3.42;;
12591;SDS011;6361;52.120;5.108;2023-02-01T16:52:47;21.92;;;3.97;;
12591;SDS011;6361;52.120;5.108;2023-02-01T16:55:13;17.35;;;3.40;;
12591;SDS011;6361;52.120;5.108;2023-02-01T16:57:42;23.20;;;3.88;;
12591;SDS011;6361;52.120;5.108;2023-02-01T17:00:11;27.88;;;3.88;;
12591;SDS011;6361;52.120;5.108;2023-02-01T17:02:38;19.80;;;3.15;;
12591;SDS011;6361;52.120;5.108;2023-02-01T17:05:04;28.13;;;4.10;;
12591;SDS011;6361;52.120;5.108;2023-02-01T17:07:31;21.45;;;3.42;;
12591;SDS011;6361;52.120;5.108;2023-02-01T17:09:56;25.40;;;4.18;;
12591;SDS011;6361;52.120;5.108;2023-02-01T17:12:23;26.85;;;3.78;;
12591;SDS011;6361;52.120;5.108;2023-02-01T17:14:53;18.55;;;3.35;;
12591;SDS011;6361;52.120;5.108;2023-02-01T17:17:19;20.75;;;3.33;;
12591;SDS011;6361;52.120;5.108;2023-02-01T17:19:49;19.50;;;3.22;;
12591;SDS011;6361;52.120;5.108;2023-02-01T17:22:19;23.23;;;3.65;;
12591;SDS011;6361;52.120;5.108;2023-02-01T17:24:46;21.08;;;3.38;;
12591;SDS011;6361;52.120;5.108;2023-02-01T17:27:11;19.40;;;3.58;;
12591;SDS011;6361;52.120;5.108;2023-02-01T17:29:37;25.08;;;4.22;;